Отчет УТП Минеральные Воды 16.01.2022

16 Января 2022 года с 17 до 19 UTC в аэропорту Минеральных Вод (URMM) прошли учебно-тренировочные полеты в сети IVAO.

В работе был Минводы-Руление, Минводы-Старт и Минводы-Подход.

Погода во время УТП:

METAR URMM 161800Z 29006MPS 9999 -SHSN OVC022CB M02/M06 Q1018
R30/190160 TEMPO 1000 SHSN BLSN BKN005 BKN020CB RMK MT OBSC QFE735/0981=

Движение в воздухе было загруженным, 6 бортов курсантов выполняли полёты.

После полётов курсантов ожидал разбор полётов, где каждый услышал замечания от Инструктора.